createdAt,value
2023-02-11T00:00:53.684Z,1.38
2023-02-11T00:03:20.204Z,2.83
2023-02-11T00:05:46.625Z,1.43
2023-02-11T00:08:16.976Z,1.88
2023-02-11T00:10:46.338Z,1.50
2023-02-11T00:13:12.822Z,1.83
2023-02-11T00:15:39.369Z,1.83
2023-02-11T00:18:05.778Z,2.83
2023-02-11T00:20:32.175Z,1.52
2023-02-11T00:22:58.622Z,1.08
2023-02-11T00:25:25.035Z,1.77
2023-02-11T00:27:51.441Z,1.42
2023-02-11T00:30:17.868Z,2.17
2023-02-11T00:32:44.328Z,1.58
2023-02-11T00:35:10.696Z,2.00
2023-02-11T00:37:37.148Z,1.80
2023-02-11T00:40:06.720Z,1.52
2023-02-11T00:42:35.535Z,1.53
2023-02-11T00:45:02.292Z,1.92
2023-02-11T00:47:28.680Z,1.35
2023-02-11T00:49:55.187Z,1.63
2023-02-11T00:52:21.601Z,1.67
2023-02-11T00:54:47.976Z,1.93
2023-02-11T00:57:14.733Z,1.70
2023-02-11T00:59:41.068Z,1.35
2023-02-11T01:02:07.438Z,1.38
2023-02-11T01:04:33.898Z,1.58
2023-02-11T01:07:00.414Z,1.70
2023-02-11T01:09:26.806Z,1.58
2023-02-11T01:11:53.206Z,1.77
2023-02-11T01:14:19.620Z,1.20
2023-02-11T01:16:46.052Z,1.52
2023-02-11T01:19:12.550Z,2.53
2023-02-11T01:21:39.099Z,1.65
2023-02-11T01:24:05.999Z,1.63
2023-02-11T01:26:32.478Z,1.50
2023-02-11T01:29:00.889Z,2.17
2023-02-11T01:31:27.371Z,1.63
2023-02-11T01:33:53.802Z,1.95
2023-02-11T01:36:20.190Z,1.40
2023-02-11T01:38:46.690Z,1.73
2023-02-11T01:41:14.939Z,1.92
2023-02-11T01:43:47.767Z,1.50
2023-02-11T01:46:26.386Z,1.55
2023-02-11T01:49:02.489Z,1.55
2023-02-11T01:51:40.057Z,2.88
2023-02-11T01:54:27.370Z,1.50
2023-02-11T01:57:16.259Z,1.40
2023-02-11T01:59:59.642Z,1.58
2023-02-11T02:02:48.264Z,2.13
2023-02-11T02:05:34.922Z,1.65
2023-02-11T02:08:17.612Z,2.15
2023-02-11T02:10:46.866Z,1.87
2023-02-11T02:13:14.626Z,1.90
2023-02-11T02:16:15.306Z,1.40
2023-02-11T02:19:00.373Z,1.60
2023-02-11T02:21:45.470Z,2.00
2023-02-11T02:24:17.853Z,1.80
2023-02-11T02:26:53.301Z,1.75
2023-02-11T02:30:15.809Z,1.70
2023-02-11T02:32:51.207Z,1.70
2023-02-11T02:36:08.840Z,2.00
2023-02-11T02:38:46.743Z,1.63
2023-02-11T02:41:17.106Z,2.15
2023-02-11T02:43:47.710Z,1.73
2023-02-11T02:46:17.430Z,1.58
2023-02-11T02:48:45.054Z,2.38
2023-02-11T02:51:39.314Z,2.27
2023-02-11T02:54:30.804Z,1.80
2023-02-11T02:57:06.313Z,2.20
2023-02-11T02:59:58.934Z,2.53
2023-02-11T03:02:59.428Z,2.13
2023-02-11T03:05:31.831Z,2.00
2023-02-11T03:08:14.628Z,1.95
2023-02-11T03:10:50.685Z,2.58
2023-02-11T03:13:20.014Z,1.80
2023-02-11T03:15:51.031Z,1.92
2023-02-11T03:18:21.509Z,1.83
2023-02-11T03:20:53.226Z,2.00
2023-02-11T03:23:30.892Z,1.88
2023-02-11T03:26:16.203Z,2.70
2023-02-11T03:28:54.852Z,1.77
2023-02-11T03:31:43.615Z,2.50
2023-02-11T03:34:14.599Z,2.08
2023-02-11T03:36:57.058Z,2.05
2023-02-11T03:39:30.590Z,2.03
2023-02-11T03:42:00.345Z,2.55
2023-02-11T03:44:31.225Z,2.33
2023-02-11T03:46:59.049Z,2.33
2023-02-11T03:49:27.753Z,2.45
2023-02-11T03:51:55.789Z,2.75
2023-02-11T03:54:30.906Z,2.58
2023-02-11T03:57:00.505Z,2.33
2023-02-11T03:59:27.299Z,2.70
2023-02-11T04:01:54.489Z,2.38
2023-02-11T04:04:20.967Z,3.20
2023-02-11T04:06:47.415Z,3.22
2023-02-11T04:09:13.808Z,3.20
2023-02-11T04:11:40.154Z,3.40
2023-02-11T04:14:06.523Z,3.90
2023-02-11T04:16:33.035Z,2.95
2023-02-11T04:18:59.529Z,3.25
2023-02-11T04:21:25.928Z,3.23
2023-02-11T04:23:52.364Z,3.67
2023-02-11T04:26:18.713Z,3.38
2023-02-11T04:28:45.051Z,3.13
2023-02-11T04:31:12.054Z,4.07
2023-02-11T04:33:38.474Z,4.10
2023-02-11T04:36:05.034Z,4.25
2023-02-11T04:38:31.879Z,4.80
2023-02-11T04:41:00.429Z,5.43
2023-02-11T04:43:26.856Z,4.70
2023-02-11T04:45:57.546Z,5.60
2023-02-11T04:48:24.553Z,5.38
2023-02-11T04:50:50.960Z,5.38
2023-02-11T04:53:17.437Z,5.32
2023-02-11T04:55:43.872Z,5.22
2023-02-11T04:58:10.232Z,5.63
2023-02-11T05:00:36.711Z,5.30
2023-02-11T05:03:03.099Z,5.53
2023-02-11T05:05:29.543Z,6.18
2023-02-11T05:07:55.901Z,5.18
2023-02-11T05:10:22.312Z,5.97
2023-02-11T05:12:49.634Z,6.40
2023-02-11T05:15:16.188Z,5.93
2023-02-11T05:17:42.590Z,6.28
2023-02-11T05:20:09.727Z,6.10
2023-02-11T05:22:36.064Z,5.70
2023-02-11T05:25:02.522Z,5.72
2023-02-11T05:27:28.849Z,6.20
2023-02-11T05:29:55.296Z,6.60
2023-02-11T05:32:21.711Z,6.13
2023-02-11T05:34:48.129Z,6.33
2023-02-11T05:37:14.903Z,6.60
2023-02-11T05:39:41.318Z,5.57
2023-02-11T05:42:07.706Z,6.07
2023-02-11T05:44:34.166Z,6.47
2023-02-11T05:47:00.618Z,7.03
2023-02-11T05:49:26.958Z,5.93
2023-02-11T05:51:53.317Z,6.70
2023-02-11T05:54:19.758Z,7.60
2023-02-11T05:56:46.120Z,6.97
2023-02-11T05:59:14.888Z,6.23
2023-02-11T06:01:41.463Z,7.30
2023-02-11T06:04:07.882Z,6.75
2023-02-11T06:06:34.260Z,6.70
2023-02-11T06:09:00.610Z,6.95
2023-02-11T06:11:27.003Z,6.67
2023-02-11T06:13:53.371Z,6.53
2023-02-11T06:16:19.792Z,6.40
2023-02-11T06:18:46.280Z,7.28
2023-02-11T06:21:12.937Z,7.10
2023-02-11T06:23:39.391Z,6.33
2023-02-11T06:26:08.787Z,7.28
2023-02-11T06:28:36.000Z,7.53
2023-02-11T06:31:06.940Z,7.28
2023-02-11T06:33:34.991Z,6.82
2023-02-11T06:36:02.013Z,7.17
2023-02-11T06:38:28.399Z,7.40
2023-02-11T06:40:54.866Z,6.88
2023-02-11T06:43:21.238Z,7.97
2023-02-11T06:45:54.155Z,7.22
2023-02-11T06:48:20.553Z,8.07
2023-02-11T06:50:46.988Z,7.07
2023-02-11T06:53:13.657Z,7.75
2023-02-11T06:55:40.370Z,7.03
2023-02-11T06:58:06.731Z,7.50
2023-02-11T07:00:33.141Z,7.20
2023-02-11T07:02:59.686Z,7.82
2023-02-11T07:05:26.159Z,8.15
2023-02-11T07:07:52.559Z,7.82
2023-02-11T07:10:19.128Z,7.68
2023-02-11T07:12:45.587Z,7.80
2023-02-11T07:15:12.065Z,7.95
2023-02-11T07:17:38.516Z,9.23
2023-02-11T07:20:05.369Z,7.60
2023-02-11T07:22:31.830Z,8.15
2023-02-11T07:24:58.198Z,8.00
2023-02-11T07:27:24.661Z,7.28
2023-02-11T07:29:51.013Z,8.82
2023-02-11T07:32:17.534Z,8.27
2023-02-11T07:34:44.009Z,7.30
2023-02-11T07:37:10.926Z,8.03
2023-02-11T07:39:37.276Z,8.32
2023-02-11T07:42:04.224Z,8.35
2023-02-11T07:44:30.848Z,8.32
2023-02-11T07:46:57.240Z,8.30
2023-02-11T07:49:23.617Z,8.03
2023-02-11T07:51:51.347Z,8.13
2023-02-11T07:54:18.164Z,8.68
2023-02-11T07:56:44.733Z,8.88
2023-02-11T07:59:11.570Z,9.07
2023-02-11T08:01:37.957Z,8.87
2023-02-11T08:04:04.666Z,9.02
2023-02-11T08:06:34.294Z,8.98
2023-02-11T08:09:06.791Z,9.15
2023-02-11T08:11:33.219Z,8.60
2023-02-11T08:13:59.631Z,8.60
2023-02-11T08:16:34.454Z,9.70
2023-02-11T08:19:04.092Z,8.48
2023-02-11T08:21:30.607Z,7.85
2023-02-11T08:23:57.503Z,8.77
2023-02-11T08:26:29.841Z,7.93
2023-02-11T08:28:56.944Z,8.43
2023-02-11T08:31:43.971Z,8.55
2023-02-11T08:34:11.897Z,8.07
2023-02-11T08:36:39.610Z,8.45
2023-02-11T08:39:19.161Z,8.47
2023-02-11T08:41:51.566Z,8.50
2023-02-11T08:44:19.663Z,8.10
2023-02-11T08:46:46.467Z,7.97
2023-02-11T08:49:12.897Z,8.52
2023-02-11T08:51:39.756Z,8.03
2023-02-11T08:54:09.487Z,7.63
2023-02-11T08:56:36.780Z,8.63
2023-02-11T08:59:03.789Z,8.57
2023-02-11T09:01:31.515Z,7.80
2023-02-11T09:03:58.906Z,8.60
2023-02-11T09:06:26.476Z,8.60
2023-02-11T09:08:54.778Z,8.30
2023-02-11T09:11:26.977Z,8.43
2023-02-11T09:13:54.495Z,8.77
2023-02-11T09:16:27.366Z,8.50
2023-02-11T09:18:57.056Z,7.97
2023-02-11T09:21:23.511Z,7.85
2023-02-11T09:23:49.977Z,7.75
2023-02-11T09:26:19.993Z,7.97
2023-02-11T09:28:47.693Z,8.63
2023-02-11T09:31:20.662Z,8.10
2023-02-11T09:33:49.469Z,7.68
2023-02-11T09:36:22.299Z,7.95
2023-02-11T09:38:48.886Z,7.32
2023-02-11T09:41:24.301Z,7.23
2023-02-11T09:44:00.916Z,7.93
2023-02-11T09:46:33.045Z,8.23
2023-02-11T09:49:00.561Z,6.97
2023-02-11T09:51:40.930Z,7.05
2023-02-11T09:54:21.004Z,7.60
2023-02-11T09:56:47.362Z,7.10
2023-02-11T09:59:17.628Z,6.80
2023-02-11T10:01:48.518Z,7.20
2023-02-11T10:04:34.546Z,7.10
2023-02-11T10:07:21.227Z,7.00
2023-02-11T10:10:21.288Z,7.25
2023-02-11T10:13:01.145Z,7.18
2023-02-11T10:15:38.355Z,7.22
2023-02-11T10:18:16.463Z,7.13
2023-02-11T10:20:59.047Z,6.70
2023-02-11T10:23:31.705Z,7.00
2023-02-11T10:25:59.095Z,6.80
2023-02-11T10:28:35.670Z,7.43
2023-02-11T10:31:05.294Z,6.88
2023-02-11T10:34:03.500Z,6.53
2023-02-11T10:36:33.860Z,6.40
2023-02-11T10:39:02.253Z,7.68
2023-02-11T10:41:36.878Z,6.50
2023-02-11T10:44:07.098Z,7.10
2023-02-11T10:46:37.827Z,6.67
2023-02-11T10:49:04.316Z,7.22
2023-02-11T10:51:35.245Z,7.05
2023-02-11T10:54:04.620Z,7.15
2023-02-11T10:56:34.447Z,6.30
2023-02-11T10:59:40.348Z,6.73
2023-02-11T11:02:25.179Z,7.10
2023-02-11T11:04:57.036Z,6.53
2023-02-11T11:07:29.497Z,6.55
2023-02-11T11:10:00.277Z,6.00
2023-02-11T11:12:36.203Z,6.00
2023-02-11T11:15:16.549Z,6.45
2023-02-11T11:17:43.073Z,7.03
2023-02-11T11:20:32.278Z,6.05
2023-02-11T11:23:17.460Z,5.45
2023-02-11T11:26:03.632Z,5.93
2023-02-11T11:28:36.615Z,5.75
2023-02-11T11:31:03.614Z,5.43
2023-02-11T11:33:34.294Z,5.18
2023-02-11T11:36:06.513Z,5.10
2023-02-11T11:38:35.262Z,5.03
2023-02-11T11:41:23.136Z,5.25
2023-02-11T11:44:08.392Z,5.28
2023-02-11T11:46:39.097Z,4.93
2023-02-11T11:49:26.667Z,5.13
2023-02-11T11:52:18.047Z,4.27
2023-02-11T11:54:50.233Z,4.30
2023-02-11T11:57:21.986Z,4.22
2023-02-11T11:59:48.414Z,4.75
2023-02-11T12:02:52.437Z,4.32
2023-02-11T12:05:53.430Z,3.77
2023-02-11T12:08:23.183Z,3.45
2023-02-11T12:11:15.315Z,4.00
2023-02-11T12:13:53.575Z,4.25
2023-02-11T12:16:19.975Z,3.92
2023-02-11T12:19:13.969Z,3.50
2023-02-11T12:22:18.320Z,3.67
2023-02-11T12:24:47.738Z,3.83
2023-02-11T12:27:22.095Z,3.88
2023-02-11T12:30:14.371Z,3.78
2023-02-11T12:33:11.650Z,3.60
2023-02-11T12:36:02.309Z,4.25
2023-02-11T12:38:49.297Z,3.75
2023-02-11T12:42:08.569Z,3.72
2023-02-11T12:44:50.875Z,3.45
2023-02-11T12:47:23.260Z,3.20
2023-02-11T12:50:28.739Z,3.58
2023-02-11T12:53:11.816Z,3.72
2023-02-11T12:55:44.838Z,4.00
2023-02-11T12:58:18.987Z,3.80
2023-02-11T13:00:55.409Z,4.00
2023-02-11T13:03:27.224Z,3.67
2023-02-11T13:06:05.396Z,4.20
2023-02-11T13:08:48.424Z,3.90
2023-02-11T13:11:26.074Z,4.03
2023-02-11T13:14:04.472Z,3.70
2023-02-11T13:16:48.784Z,3.95
2023-02-11T13:19:34.766Z,3.53
2023-02-11T13:22:25.865Z,3.70
2023-02-11T13:25:07.272Z,3.97
2023-02-11T13:28:20.810Z,4.20
2023-02-11T13:30:52.402Z,3.38
2023-02-11T13:33:31.719Z,3.67
2023-02-11T13:35:58.027Z,3.63
2023-02-11T13:38:27.507Z,3.47
2023-02-11T13:41:14.412Z,3.20
2023-02-11T13:43:41.128Z,3.50
2023-02-11T13:46:15.543Z,3.50
2023-02-11T13:48:54.092Z,3.67
2023-02-11T13:51:35.135Z,3.42
2023-02-11T13:54:02.437Z,3.07
2023-02-11T13:56:37.988Z,3.15
2023-02-11T13:59:06.988Z,3.38
2023-02-11T14:02:17.779Z,3.17
2023-02-11T14:05:24.811Z,3.10
2023-02-11T14:08:28.078Z,3.33
2023-02-11T14:11:01.684Z,3.00
2023-02-11T14:13:30.734Z,3.10
2023-02-11T14:16:25.432Z,2.88
2023-02-11T14:19:02.468Z,3.28
2023-02-11T14:21:32.389Z,3.27
2023-02-11T14:24:01.775Z,3.40
2023-02-11T14:26:51.926Z,3.58
2023-02-11T14:29:28.725Z,3.17
2023-02-11T14:32:18.714Z,3.47
2023-02-11T14:34:57.212Z,2.97
2023-02-11T14:38:08.100Z,3.40
2023-02-11T14:40:56.772Z,3.30
2023-02-11T14:43:33.055Z,3.10
2023-02-11T14:46:01.280Z,2.53
2023-02-11T14:48:31.650Z,3.50
2023-02-11T14:51:03.038Z,3.28
2023-02-11T14:53:33.174Z,3.17
2023-02-11T14:55:59.685Z,2.80
2023-02-11T14:58:31.685Z,2.88
2023-02-11T15:01:01.311Z,3.13
2023-02-11T15:03:29.048Z,3.30
2023-02-11T15:05:58.700Z,3.75
2023-02-11T15:08:26.480Z,6.72
2023-02-11T15:10:55.284Z,16.77
2023-02-11T15:13:27.114Z,7.57
2023-02-11T15:15:57.902Z,6.65
2023-02-11T15:18:31.754Z,3.88
2023-02-11T15:20:58.200Z,4.13
2023-02-11T15:23:29.661Z,6.32
2023-02-11T15:25:56.559Z,3.33
2023-02-11T15:28:29.104Z,3.28
2023-02-11T15:31:17.414Z,3.10
2023-02-11T15:33:43.890Z,3.13
2023-02-11T15:36:12.608Z,3.45
2023-02-11T15:38:40.029Z,3.00
2023-02-11T15:41:07.577Z,3.08
2023-02-11T15:43:48.721Z,3.45
2023-02-11T15:46:18.787Z,3.38
2023-02-11T15:48:49.219Z,3.53
2023-02-11T15:51:25.247Z,3.67
2023-02-11T15:53:58.602Z,2.70
2023-02-11T15:56:45.581Z,3.22
2023-02-11T15:59:17.215Z,2.83
2023-02-11T16:01:45.538Z,3.03
2023-02-11T16:04:24.414Z,3.33
2023-02-11T16:06:51.395Z,2.72
2023-02-11T16:09:31.800Z,3.70
2023-02-11T16:12:03.137Z,3.60
2023-02-11T16:14:29.587Z,3.72
2023-02-11T16:17:04.122Z,3.03
2023-02-11T16:19:32.582Z,3.47
2023-02-11T16:22:02.489Z,3.83
2023-02-11T16:24:33.004Z,3.90
2023-02-11T16:27:06.859Z,3.22
2023-02-11T16:29:36.516Z,3.07
2023-02-11T16:32:08.440Z,3.38
2023-02-11T16:34:35.089Z,2.85
2023-02-11T16:37:04.747Z,3.83
2023-02-11T16:39:31.210Z,3.83
2023-02-11T16:41:58.274Z,3.70
2023-02-11T16:44:24.846Z,4.40
2023-02-11T16:46:52.762Z,3.13
2023-02-11T16:49:32.611Z,3.55
2023-02-11T16:52:01.814Z,3.30
2023-02-11T16:54:29.602Z,3.70
2023-02-11T16:56:56.874Z,2.88
2023-02-11T16:59:23.703Z,3.40
2023-02-11T17:01:51.941Z,3.10
2023-02-11T17:04:25.966Z,3.58
2023-02-11T17:06:52.480Z,2.70
2023-02-11T17:09:24.437Z,2.95
2023-02-11T17:11:51.592Z,3.60
2023-02-11T17:14:19.242Z,2.92
2023-02-11T17:16:47.770Z,3.30
2023-02-11T17:19:17.221Z,3.77
2023-02-11T17:21:45.149Z,3.53
2023-02-11T17:24:14.294Z,3.42
2023-02-11T17:26:41.484Z,3.55
2023-02-11T17:29:09.869Z,2.78
2023-02-11T17:31:36.632Z,3.13
2023-02-11T17:34:03.518Z,3.22
2023-02-11T17:36:33.297Z,3.25
2023-02-11T17:39:01.158Z,3.40
2023-02-11T17:41:27.876Z,3.33
2023-02-11T17:43:57.587Z,3.30
2023-02-11T17:46:24.406Z,3.22
2023-02-11T17:48:52.759Z,3.58
2023-02-11T17:51:28.433Z,3.22
2023-02-11T17:53:57.764Z,2.95
2023-02-11T17:56:24.836Z,3.33
2023-02-11T17:58:52.953Z,3.75
2023-02-11T18:01:20.021Z,3.70
2023-02-11T18:03:46.444Z,3.47
2023-02-11T18:06:12.843Z,3.58
2023-02-11T18:08:39.229Z,3.63
2023-02-11T18:11:09.969Z,3.72
2023-02-11T18:13:36.373Z,3.90
2023-02-11T18:16:04.245Z,4.13
2023-02-11T18:18:31.540Z,4.45
2023-02-11T18:20:59.529Z,6.17
2023-02-11T18:23:26.490Z,6.75
2023-02-11T18:25:53.506Z,13.30
2023-02-11T18:28:20.266Z,6.20
2023-02-11T18:30:46.729Z,5.85
2023-02-11T18:33:14.429Z,4.83
2023-02-11T18:35:42.119Z,5.13
2023-02-11T18:38:09.768Z,5.88
2023-02-11T18:40:39.799Z,8.45
2023-02-11T18:43:06.806Z,6.47
2023-02-11T18:45:33.517Z,5.30
2023-02-11T18:48:03.483Z,4.68
2023-02-11T18:50:30.120Z,5.60
2023-02-11T18:52:56.621Z,5.03
2023-02-11T18:55:25.717Z,5.00
2023-02-11T18:57:52.994Z,4.30
2023-02-11T19:00:21.352Z,5.43
2023-02-11T19:02:47.711Z,5.00
2023-02-11T19:05:14.275Z,6.13
2023-02-11T19:07:41.703Z,4.70
2023-02-11T19:10:08.805Z,4.70
2023-02-11T19:12:35.204Z,5.97
2023-02-11T19:15:01.661Z,5.20
2023-02-11T19:17:28.069Z,4.97
2023-02-11T19:19:54.422Z,4.68
2023-02-11T19:22:20.911Z,5.37
2023-02-11T19:24:47.381Z,5.10
2023-02-11T19:27:13.784Z,5.18
2023-02-11T19:29:40.242Z,5.00
2023-02-11T19:32:06.948Z,4.70
2023-02-11T19:34:40.914Z,5.60
2023-02-11T19:37:12.669Z,4.78
2023-02-11T19:39:40.514Z,5.35
2023-02-11T19:42:07.237Z,5.72
2023-02-11T19:44:33.706Z,5.20
2023-02-11T19:47:00.230Z,4.80
2023-02-11T19:49:26.810Z,4.93
2023-02-11T19:51:57.269Z,5.00
2023-02-11T19:54:26.441Z,4.05
2023-02-11T19:56:53.594Z,4.80
2023-02-11T19:59:20.404Z,5.20
2023-02-11T20:01:48.875Z,4.90
2023-02-11T20:04:16.841Z,4.95
2023-02-11T20:06:43.486Z,5.30
2023-02-11T20:09:13.459Z,4.93
2023-02-11T20:11:40.914Z,5.60
2023-02-11T20:14:08.342Z,5.80
2023-02-11T20:16:47.705Z,4.95
2023-02-11T20:19:21.236Z,5.70
2023-02-11T20:21:50.760Z,5.78
2023-02-11T20:24:18.565Z,5.37
2023-02-11T20:26:47.986Z,5.00
2023-02-11T20:29:18.338Z,5.32
2023-02-11T20:31:45.543Z,5.28
2023-02-11T20:34:12.600Z,5.40
2023-02-11T20:36:40.388Z,5.47
2023-02-11T20:39:07.536Z,5.25
2023-02-11T20:41:36.512Z,5.25
2023-02-11T20:44:05.691Z,5.50
2023-02-11T20:46:33.876Z,5.68
2023-02-11T20:49:01.300Z,6.20
2023-02-11T20:51:31.032Z,5.93
2023-02-11T20:53:58.470Z,5.78
2023-02-11T20:56:30.038Z,5.70
2023-02-11T20:58:58.024Z,5.38
2023-02-11T21:01:35.710Z,6.10
2023-02-11T21:04:03.866Z,4.90
2023-02-11T21:06:36.613Z,4.38
2023-02-11T21:09:05.259Z,5.35
2023-02-11T21:11:31.741Z,5.45
2023-02-11T21:13:58.579Z,5.07
2023-02-11T21:16:25.717Z,5.10
2023-02-11T21:18:52.616Z,4.70
2023-02-11T21:21:19.853Z,5.22
2023-02-11T21:23:46.386Z,5.00
2023-02-11T21:26:13.338Z,5.33
2023-02-11T21:28:43.308Z,5.10
2023-02-11T21:31:10.074Z,5.07
2023-02-11T21:33:36.675Z,5.15
2023-02-11T21:36:04.665Z,4.78
2023-02-11T21:38:33.545Z,4.87
2023-02-11T21:41:06.785Z,4.55
2023-02-11T21:43:33.588Z,5.05
2023-02-11T21:46:00.659Z,4.72
2023-02-11T21:48:27.192Z,5.28
2023-02-11T21:50:53.770Z,5.13
2023-02-11T21:53:20.389Z,5.32
2023-02-11T21:55:46.863Z,4.95
2023-02-11T21:58:14.046Z,4.97
2023-02-11T22:00:40.569Z,4.53
2023-02-11T22:03:07.000Z,5.07
2023-02-11T22:05:33.409Z,5.07
2023-02-11T22:07:59.846Z,5.70
2023-02-11T22:10:26.316Z,5.05
2023-02-11T22:12:52.743Z,5.47
2023-02-11T22:15:19.674Z,5.07
2023-02-11T22:17:46.111Z,5.40
2023-02-11T22:20:12.820Z,5.18
2023-02-11T22:22:39.244Z,5.30
2023-02-11T22:25:06.143Z,4.85
2023-02-11T22:27:32.593Z,5.60
2023-02-11T22:29:59.042Z,4.55
2023-02-11T22:32:25.474Z,5.70
2023-02-11T22:34:53.407Z,5.28
2023-02-11T22:37:20.239Z,5.40
2023-02-11T22:39:46.743Z,5.90
2023-02-11T22:42:13.099Z,5.18
2023-02-11T22:44:39.512Z,5.57
2023-02-11T22:47:06.021Z,5.70
2023-02-11T22:49:33.193Z,6.30
2023-02-11T22:52:00.304Z,5.00
2023-02-11T22:54:27.234Z,5.43
2023-02-11T22:56:53.729Z,5.90
2023-02-11T22:59:21.082Z,5.60
2023-02-11T23:01:47.870Z,6.20
2023-02-11T23:04:17.042Z,5.87
2023-02-11T23:06:43.810Z,5.80
2023-02-11T23:09:12.503Z,6.18
2023-02-11T23:11:39.708Z,5.63
2023-02-11T23:14:08.523Z,5.68
2023-02-11T23:16:35.424Z,6.07
2023-02-11T23:19:08.770Z,6.43
2023-02-11T23:21:37.768Z,5.63
2023-02-11T23:24:08.376Z,6.00
2023-02-11T23:26:35.361Z,5.47
2023-02-11T23:29:01.959Z,5.57
2023-02-11T23:31:33.120Z,4.97
2023-02-11T23:34:01.076Z,6.32
2023-02-11T23:36:28.163Z,6.10
2023-02-11T23:38:54.708Z,5.47
2023-02-11T23:41:21.920Z,6.20
2023-02-11T23:43:50.746Z,5.63
2023-02-11T23:46:17.604Z,5.88
2023-02-11T23:48:44.362Z,5.35
2023-02-11T23:51:11.109Z,6.10
2023-02-11T23:53:38.805Z,6.60
2023-02-11T23:56:10.662Z,6.10
2023-02-11T23:58:37.381Z,6.38
